Time,TemperatureF,DewpointF,PressureIn,WindDirection,WindDirectionDegrees,WindSpeedMPH,WindSpeedGustMPH,Humidity,HourlyPrecipIn,Conditions,Clouds,dailyrainin,SoftwareType,DateUTC
2013-06-28 00:11:00,66.5,65.0,28.96,WSW,250,1.0,4.0,96,0.00,,,0.00,weatherlink.com 1.10,2013-06-28 04:11:00,
2013-06-28 00:26:00,66.4,65.0,28.96,NE,43,2.0,3.0,96,0.00,,,0.00,weatherlink.com 1.10,2013-06-28 04:26:00,
2013-06-28 00:41:00,66.1,65.0,28.96,ENE,72,0.0,2.0,96,0.00,,,0.00,weatherlink.com 1.10,2013-06-28 04:41:00,
2013-06-28 00:56:00,66.0,65.0,28.95,ENE,74,0.0,2.0,96,0.01,,,0.01,weatherlink.com 1.10,2013-06-28 04:56:00,
2013-06-28 01:11:00,66.0,65.0,28.96,SSE,148,1.0,2.0,97,0.01,,,0.01,weatherlink.com 1.10,2013-06-28 05:11:00,
2013-06-28 01:26:00,66.1,65.0,28.96,SSE,160,0.0,2.0,97,0.01,,,0.01,weatherlink.com 1.10,2013-06-28 05:26:00,
2013-06-28 01:41:00,65.9,65.0,28.96,SSE,159,0.0,0.0,97,0.01,,,0.01,weatherlink.com 1.10,2013-06-28 05:41:00,
2013-06-28 01:56:00,65.8,65.0,28.95,SSE,159,0.0,1.0,97,0.01,,,0.02,weatherlink.com 1.10,2013-06-28 05:56:00,
2013-06-28 02:11:00,65.7,65.0,28.96,SSE,160,0.0,1.0,97,0.01,,,0.02,weatherlink.com 1.10,2013-06-28 06:11:00,
2013-06-28 02:26:00,65.6,65.0,28.96,SSE,161,0.0,1.0,97,0.02,,,0.03,weatherlink.com 1.10,2013-06-28 06:26:00,
2013-06-28 02:41:00,65.5,65.0,28.96,SSE,160,0.0,0.0,97,0.03,,,0.04,weatherlink.com 1.10,2013-06-28 06:41:00,
2013-06-28 02:56:00,65.5,65.0,28.95,SSE,155,0.0,2.0,97,0.03,,,0.05,weatherlink.com 1.10,2013-06-28 06:56:00,
2013-06-28 03:12:00,65.4,65.0,28.95,SSE,155,0.0,1.0,97,0.03,,,0.05,weatherlink.com 1.10,2013-06-28 07:12:00,
2013-06-28 03:27:00,65.4,65.0,28.95,SE,129,0.0,1.0,97,0.03,,,0.06,weatherlink.com 1.10,2013-06-28 07:27:00,
2013-06-28 03:42:00,65.5,65.0,28.95,South,177,1.0,1.0,97,0.02,,,0.06,weatherlink.com 1.10,2013-06-28 07:42:00,
2013-06-28 03:57:00,65.5,65.0,28.95,South,180,0.0,1.0,97,0.01,,,0.06,weatherlink.com 1.10,2013-06-28 07:57:00,
2013-06-28 04:12:00,65.5,65.0,28.94,South,181,1.0,1.0,97,0.01,,,0.06,weatherlink.com 1.10,2013-06-28 08:12:00,
2013-06-28 04:27:00,65.4,65.0,28.94,South,184,0.0,1.0,97,0.00,,,0.06,weatherlink.com 1.10,2013-06-28 08:27:00,
2013-06-28 04:43:00,65.3,65.0,28.94,South,185,0.0,1.0,97,0.00,,,0.06,weatherlink.com 1.10,2013-06-28 08:43:00,
2013-06-28 04:57:00,65.4,65.0,28.94,SSW,202,0.0,2.0,97,0.00,,,0.06,weatherlink.com 1.10,2013-06-28 08:57:00,
2013-06-28 05:12:00,65.2,64.0,28.94,SSW,203,0.0,1.0,97,0.00,,,0.06,weatherlink.com 1.10,2013-06-28 09:12:00,
2013-06-28 05:27:00,64.9,64.0,28.93,SSW,203,0.0,1.0,97,0.00,,,0.06,weatherlink.com 1.10,2013-06-28 09:27:00,
2013-06-28 05:42:00,64.5,64.0,28.93,SSW,203,0.0,0.0,97,0.00,,,0.06,weatherlink.com 1.10,2013-06-28 09:42:00,
2013-06-28 05:58:00,64.6,64.0,28.93,SSW,203,1.0,1.0,97,0.00,,,0.06,weatherlink.com 1.10,2013-06-28 09:58:00,
2013-06-28 06:12:00,64.7,64.0,28.93,SSW,211,0.0,2.0,97,0.00,,,0.06,weatherlink.com 1.10,2013-06-28 10:12:00,
2013-06-28 06:27:00,64.8,64.0,28.93,SW,222,2.0,2.0,97,0.00,,,0.06,weatherlink.com 1.10,2013-06-28 10:27:00,
2013-06-28 06:42:00,64.7,64.0,28.94,SSW,194,1.0,2.0,97,0.00,,,0.06,weatherlink.com 1.10,2013-06-28 10:42:00,
2013-06-28 06:57:00,65.2,64.0,28.94,SW,218,0.0,2.0,97,0.00,,,0.06,weatherlink.com 1.10,2013-06-28 10:57:00,
2013-06-28 07:12:00,65.5,65.0,28.94,WSW,240,2.0,3.0,97,0.00,,,0.06,weatherlink.com 1.10,2013-06-28 11:12:00,
2013-06-28 07:27:00,65.6,65.0,28.93,SSW,212,1.0,3.0,97,0.00,,,0.06,weatherlink.com 1.10,2013-06-28 11:27:00,
2013-06-28 07:42:00,65.8,65.0,28.92,SW,229,2.0,4.0,96,0.00,,,0.06,weatherlink.com 1.10,2013-06-28 11:42:00,
2013-06-28 07:57:00,66.4,65.0,28.92,South,181,2.0,5.0,96,0.00,,,0.06,weatherlink.com 1.10,2013-06-28 11:57:00,
2013-06-28 08:12:00,67.0,66.0,28.92,WSW,250,1.0,6.0,95,0.00,,,0.06,weatherlink.com 1.10,2013-06-28 12:12:00,
2013-06-28 08:27:00,67.6,66.0,28.92,WSW,246,3.0,5.0,93,0.00,,,0.06,weatherlink.com 1.10,2013-06-28 12:27:00,
2013-06-28 08:42:00,68.5,66.0,28.92,SW,221,1.0,5.0,92,0.00,,,0.06,weatherlink.com 1.10,2013-06-28 12:42:00,
2013-06-28 08:57:00,68.7,66.0,28.91,SW,226,3.0,6.0,90,0.00,,,0.06,weatherlink.com 1.10,2013-06-28 12:57:00,
2013-06-28 09:12:00,69.2,66.0,28.91,NNE,30,3.0,5.0,89,0.00,,,0.06,weatherlink.com 1.10,2013-06-28 13:12:00,
2013-06-28 09:27:00,69.9,66.0,28.91,WNW,301,2.0,5.0,88,0.00,,,0.06,weatherlink.com 1.10,2013-06-28 13:27:00,
2013-06-28 09:42:00,71.4,67.0,28.91,WSW,243,1.0,6.0,85,0.00,,,0.06,weatherlink.com 1.10,2013-06-28 13:42:00,
2013-06-28 09:57:00,72.0,67.0,28.90,SSW,212,3.0,6.0,83,0.00,,,0.06,weatherlink.com 1.10,2013-06-28 13:57:00,
2013-06-28 10:12:00,73.9,66.0,28.90,SW,233,1.0,6.0,76,0.00,,,0.06,weatherlink.com 1.10,2013-06-28 14:12:00,
2013-06-28 10:27:00,74.7,65.0,28.90,SW,235,2.0,5.0,72,0.00,,,0.06,weatherlink.com 1.10,2013-06-28 14:27:00,
2013-06-28 10:42:00,76.7,66.0,28.90,NNE,20,5.0,6.0,69,0.00,,,0.06,weatherlink.com 1.10,2013-06-28 14:42:00,
2013-06-28 10:58:00,76.5,66.0,28.90,NNE,15,3.0,6.0,69,0.00,,,0.06,weatherlink.com 1.10,2013-06-28 14:58:00,
2013-06-28 11:13:00,78.0,66.0,28.89,North,359,1.0,6.0,67,0.00,,,0.06,weatherlink.com 1.10,2013-06-28 15:13:00,
2013-06-28 11:28:00,77.0,65.0,28.89,NNE,22,5.0,6.0,67,0.00,,,0.06,weatherlink.com 1.10,2013-06-28 15:28:00,
2013-06-28 11:43:00,76.9,65.0,28.89,SW,229,2.0,6.0,66,0.00,,,0.06,weatherlink.com 1.10,2013-06-28 15:43:00,
2013-06-28 11:58:00,77.0,64.0,28.89,SW,233,3.0,7.0,64,0.00,,,0.06,weatherlink.com 1.10,2013-06-28 15:58:00,
2013-06-28 12:13:00,77.5,65.0,28.88,SW,222,4.0,6.0,65,0.00,,,0.06,weatherlink.com 1.10,2013-06-28 16:13:00,
2013-06-28 12:28:00,77.4,65.0,28.89,SW,228,2.0,5.0,66,0.00,,,0.06,weatherlink.com 1.10,2013-06-28 16:28:00,
2013-06-28 12:43:00,77.2,65.0,28.88,SSW,212,2.0,7.0,67,0.00,,,0.06,weatherlink.com 1.10,2013-06-28 16:43:00,
2013-06-28 12:58:00,74.7,65.0,28.89,NE,44,2.0,15.0,71,0.00,,,0.06,weatherlink.com 1.10,2013-06-28 16:58:00,
2013-06-28 13:13:00,70.1,63.0,28.89,NE,49,0.0,7.0,79,0.00,,,0.06,weatherlink.com 1.10,2013-06-28 17:13:00,
2013-06-28 13:28:00,70.1,65.0,28.88,WSW,249,4.0,4.0,84,0.00,,,0.06,weatherlink.com 1.10,2013-06-28 17:28:00,
2013-06-28 13:43:00,69.2,64.0,28.89,SW,218,1.0,6.0,84,0.00,,,0.06,weatherlink.com 1.10,2013-06-28 17:43:00,
2013-06-28 13:58:00,68.6,64.0,28.89,West,266,1.0,2.0,86,0.03,,,0.09,weatherlink.com 1.10,2013-06-28 17:58:00,
2013-06-28 14:13:00,67.7,64.0,28.89,South,188,1.0,6.0,88,0.04,,,0.10,weatherlink.com 1.10,2013-06-28 18:13:00,
2013-06-28 14:28:00,67.3,64.0,28.90,WSW,243,3.0,6.0,89,0.04,,,0.10,weatherlink.com 1.10,2013-06-28 18:28:00,
2013-06-28 14:43:00,67.3,63.0,28.89,SSW,211,1.0,7.0,86,0.04,,,0.10,weatherlink.com 1.10,2013-06-28 18:43:00,
2013-06-28 14:58:00,67.2,62.0,28.89,NNW,338,3.0,6.0,83,0.01,,,0.10,weatherlink.com 1.10,2013-06-28 18:58:00,
2013-06-28 15:13:00,65.2,62.0,28.89,NNE,13,2.0,9.0,89,0.06,,,0.16,weatherlink.com 1.10,2013-06-28 19:13:00,
2013-06-28 15:28:00,64.5,62.0,28.88,ENE,58,2.0,9.0,90,0.10,,,0.20,weatherlink.com 1.10,2013-06-28 19:28:00,
2013-06-28 15:43:00,65.2,62.0,28.87,NW,326,0.0,3.0,90,0.11,,,0.21,weatherlink.com 1.10,2013-06-28 19:43:00,
2013-06-28 15:58:00,65.6,63.0,28.87,ENE,65,0.0,3.0,91,0.11,,,0.21,weatherlink.com 1.10,2013-06-28 19:58:00,
2013-06-28 16:13:00,66.4,64.0,28.87,ENE,61,0.0,2.0,91,0.04,,,0.21,weatherlink.com 1.10,2013-06-28 20:13:00,
2013-06-28 16:28:00,67.7,64.0,28.87,ENE,63,0.0,1.0,89,0.01,,,0.21,weatherlink.com 1.10,2013-06-28 20:28:00,
2013-06-28 16:43:00,69.3,66.0,28.87,West,269,2.0,2.0,88,0.00,,,0.21,weatherlink.com 1.10,2013-06-28 20:43:00,
2013-06-28 16:58:00,70.9,67.0,28.87,West,277,0.0,1.0,86,0.00,,,0.21,weatherlink.com 1.10,2013-06-28 20:58:00,
2013-06-28 17:13:00,71.5,67.0,28.86,ENE,75,2.0,3.0,86,0.00,,,0.21,weatherlink.com 1.10,2013-06-28 21:13:00,
2013-06-28 17:28:00,73.0,68.0,28.87,ESE,110,1.0,3.0,84,0.00,,,0.21,weatherlink.com 1.10,2013-06-28 21:28:00,
2013-06-28 17:43:00,74.4,68.0,28.87,NE,34,1.0,4.0,81,0.00,,,0.21,weatherlink.com 1.10,2013-06-28 21:43:00,
2013-06-28 17:58:00,76.0,68.0,28.87,SSE,164,1.0,5.0,77,0.00,,,0.21,weatherlink.com 1.10,2013-06-28 21:58:00,
2013-06-28 18:13:00,74.8,68.0,28.88,SSE,154,0.0,4.0,79,0.00,,,0.21,weatherlink.com 1.10,2013-06-28 22:13:00,
2013-06-28 18:28:00,73.5,67.0,28.88,SE,134,1.0,4.0,81,0.00,,,0.21,weatherlink.com 1.10,2013-06-28 22:28:00,
2013-06-28 18:43:00,71.1,66.0,28.89,NE,43,3.0,9.0,85,0.00,,,0.21,weatherlink.com 1.10,2013-06-28 22:43:00,
2013-06-28 18:58:00,68.0,65.0,28.89,East,94,1.0,9.0,91,0.07,,,0.28,weatherlink.com 1.10,2013-06-28 22:58:00,
2013-06-28 19:13:00,67.0,65.0,28.90,NE,50,0.0,3.0,93,0.11,,,0.32,weatherlink.com 1.10,2013-06-28 23:13:00,
2013-06-28 19:28:00,66.4,65.0,28.91,East,79,1.0,4.0,94,0.13,,,0.34,weatherlink.com 1.10,2013-06-28 23:28:00,
2013-06-28 19:43:00,66.2,65.0,28.91,East,81,1.0,4.0,95,0.18,,,0.39,weatherlink.com 1.10,2013-06-28 23:43:00,
2013-06-28 19:58:00,66.0,65.0,28.92,NE,50,1.0,3.0,95,0.14,,,0.42,weatherlink.com 1.10,2013-06-28 23:58:00,
2013-06-28 20:13:00,65.8,64.0,28.92,ENE,63,0.0,2.0,95,0.14,,,0.46,weatherlink.com 1.10,2013-06-29 00:13:00,
2013-06-28 20:28:00,65.5,64.0,28.92,NE,50,2.0,5.0,95,0.15,,,0.49,weatherlink.com 1.10,2013-06-29 00:28:00,
2013-06-28 20:43:00,65.1,64.0,28.92,ENE,77,1.0,2.0,95,0.11,,,0.50,weatherlink.com 1.10,2013-06-29 00:43:00,
2013-06-28 20:58:00,64.9,64.0,28.91,ENE,78,0.0,2.0,95,0.09,,,0.51,weatherlink.com 1.10,2013-06-29 00:58:00,
2013-06-28 21:13:00,64.8,64.0,28.91,ENE,77,0.0,1.0,96,0.04,,,0.51,weatherlink.com 1.10,2013-06-29 01:13:00,
2013-06-28 21:28:00,64.7,64.0,28.91,East,79,0.0,1.0,96,0.02,,,0.51,weatherlink.com 1.10,2013-06-29 01:28:00,
2013-06-28 21:43:00,64.6,64.0,28.91,East,79,0.0,1.0,96,0.01,,,0.51,weatherlink.com 1.10,2013-06-29 01:43:00,
2013-06-28 21:58:00,64.4,63.0,28.91,East,79,0.0,1.0,96,0.00,,,0.51,weatherlink.com 1.10,2013-06-29 01:58:00,
2013-06-28 22:13:00,64.3,63.0,28.92,ENE,68,0.0,2.0,96,0.00,,,0.51,weatherlink.com 1.10,2013-06-29 02:13:00,
2013-06-28 22:28:00,64.2,63.0,28.92,ENE,57,1.0,2.0,96,0.00,,,0.51,weatherlink.com 1.10,2013-06-29 02:28:00,
2013-06-28 22:43:00,64.0,63.0,28.92,NE,52,2.0,3.0,96,0.00,,,0.51,weatherlink.com 1.10,2013-06-29 02:43:00,
2013-06-28 22:58:00,63.8,63.0,28.92,North,357,1.0,3.0,96,0.00,,,0.51,weatherlink.com 1.10,2013-06-29 02:58:00,
2013-06-28 23:13:00,63.4,62.0,28.92,North,353,4.0,4.0,96,0.00,,,0.51,weatherlink.com 1.10,2013-06-29 03:13:00,
2013-06-28 23:28:00,63.2,62.0,28.91,NE,37,2.0,3.0,96,0.00,,,0.51,weatherlink.com 1.10,2013-06-29 03:28:00,
2013-06-28 23:43:00,62.8,62.0,28.91,NNW,327,0.0,3.0,96,0.00,,,0.51,weatherlink.com 1.10,2013-06-29 03:43:00,
2013-06-28 23:58:00,62.5,61.0,28.91,North,358,0.0,1.0,96,0.00,,,0.51,weatherlink.com 1.10,2013-06-29 03:58:00,